createdAt,value
2023-02-25T00:01:39.056Z,1.23
2023-02-25T00:04:06.258Z,1.27
2023-02-25T00:06:33.234Z,1.10
2023-02-25T00:09:01.127Z,1.23
2023-02-25T00:11:28.423Z,1.35
2023-02-25T00:13:55.505Z,1.30
2023-02-25T00:16:26.491Z,1.08
2023-02-25T00:18:57.964Z,0.98
2023-02-25T00:21:27.068Z,1.10
2023-02-25T00:23:54.484Z,1.30
2023-02-25T00:26:23.030Z,1.17
2023-02-25T00:28:50.699Z,1.30
2023-02-25T00:31:21.090Z,1.13
2023-02-25T00:33:49.341Z,1.70
2023-02-25T00:36:25.489Z,1.55
2023-02-25T00:38:57.516Z,1.40
2023-02-25T00:41:27.769Z,1.40
2023-02-25T00:44:00.428Z,0.98
2023-02-25T00:46:29.649Z,1.48
2023-02-25T00:48:58.542Z,1.48
2023-02-25T00:51:31.111Z,1.10
2023-02-25T00:53:58.429Z,1.08
2023-02-25T00:56:26.830Z,1.10
2023-02-25T00:58:54.647Z,1.27
2023-02-25T01:01:26.750Z,1.30
2023-02-25T01:03:56.582Z,0.85
2023-02-25T01:06:25.539Z,1.33
2023-02-25T01:08:53.356Z,1.30
2023-02-25T01:11:27.208Z,1.50
2023-02-25T01:14:14.797Z,1.17
2023-02-25T01:16:41.938Z,1.10
2023-02-25T01:19:35.029Z,0.85
2023-02-25T01:22:02.055Z,1.10
2023-02-25T01:24:32.278Z,1.35
2023-02-25T01:27:01.899Z,1.25
2023-02-25T01:29:32.097Z,1.00
2023-02-25T01:32:02.225Z,1.10
2023-02-25T01:34:30.855Z,0.98
2023-02-25T01:36:58.328Z,0.90
2023-02-25T01:39:27.036Z,1.10
2023-02-25T01:44:38.013Z,1.10
2023-02-25T01:47:05.155Z,1.10
2023-02-25T01:49:38.624Z,0.90
2023-02-25T01:52:15.765Z,1.20
2023-02-25T01:54:45.328Z,1.38
2023-02-25T01:57:15.363Z,0.98
2023-02-25T01:59:44.438Z,0.90
2023-02-25T02:02:14.145Z,0.80
2023-02-25T02:04:42.940Z,1.00
2023-02-25T02:07:10.212Z,1.25
2023-02-25T02:09:37.707Z,1.23
2023-02-25T02:12:07.149Z,1.13
2023-02-25T02:14:38.821Z,1.10
2023-02-25T02:17:23.574Z,1.00
2023-02-25T02:20:14.035Z,1.15
2023-02-25T02:22:44.012Z,1.10
2023-02-25T02:25:41.865Z,1.15
2023-02-25T02:28:39.770Z,1.35
2023-02-25T02:31:13.629Z,1.08
2023-02-25T02:33:55.563Z,1.10
2023-02-25T02:37:05.664Z,0.90
2023-02-25T02:39:36.867Z,1.30
2023-02-25T02:42:10.109Z,1.30
2023-02-25T02:45:10.591Z,1.10
2023-02-25T02:47:42.763Z,1.17
2023-02-25T02:50:29.462Z,1.33
2023-02-25T02:53:00.517Z,1.00
2023-02-25T02:55:34.074Z,1.35
2023-02-25T02:58:30.149Z,1.20
2023-02-25T03:01:09.530Z,1.25
2023-02-25T03:03:41.762Z,1.20
2023-02-25T03:06:12.780Z,0.90
2023-02-25T03:08:44.918Z,0.88
2023-02-25T03:11:13.723Z,1.35
2023-02-25T03:13:41.550Z,1.20
2023-02-25T03:16:14.722Z,1.42
2023-02-25T03:18:47.885Z,1.30
2023-02-25T03:21:25.519Z,1.13
2023-02-25T03:23:53.148Z,1.27
2023-02-25T03:26:33.770Z,1.40
2023-02-25T03:29:04.292Z,1.35
2023-02-25T03:31:57.685Z,1.20
2023-02-25T03:34:40.584Z,1.23
2023-02-25T03:37:15.031Z,1.35
2023-02-25T03:39:46.707Z,1.05
2023-02-25T03:42:20.013Z,1.20
2023-02-25T03:44:52.070Z,1.10
2023-02-25T03:47:21.821Z,1.27
2023-02-25T03:50:03.770Z,1.00
2023-02-25T03:52:31.694Z,1.20
2023-02-25T03:55:03.419Z,1.40
2023-02-25T03:57:51.780Z,1.40
2023-02-25T04:00:23.782Z,1.10
2023-02-25T04:02:51.550Z,1.23
2023-02-25T04:05:20.309Z,1.00
2023-02-25T04:07:47.734Z,1.23
2023-02-25T04:10:16.582Z,1.83
2023-02-25T04:12:43.680Z,1.40
2023-02-25T04:15:11.334Z,1.13
2023-02-25T04:17:38.403Z,1.25
2023-02-25T04:20:06.475Z,1.58
2023-02-25T04:22:34.126Z,1.38
2023-02-25T04:25:01.508Z,1.30
2023-02-25T04:27:28.667Z,1.48
2023-02-25T04:29:55.769Z,1.00
2023-02-25T04:32:22.900Z,1.33
2023-02-25T04:34:50.040Z,1.00
2023-02-25T04:37:17.456Z,1.13
2023-02-25T04:39:44.685Z,1.23
2023-02-25T04:42:11.698Z,2.08
2023-02-25T04:44:38.761Z,1.30
2023-02-25T04:47:05.732Z,1.60
2023-02-25T04:49:32.818Z,1.30
2023-02-25T04:51:59.990Z,1.15
2023-02-25T04:54:27.073Z,1.42
2023-02-25T04:56:54.072Z,1.20
2023-02-25T04:59:21.133Z,1.63
2023-02-25T05:01:48.471Z,1.30
2023-02-25T05:04:15.650Z,1.27
2023-02-25T05:06:42.664Z,1.42
2023-02-25T05:09:10.531Z,1.40
2023-02-25T05:11:37.632Z,1.50
2023-02-25T05:14:04.586Z,1.35
2023-02-25T05:16:31.632Z,1.45
2023-02-25T05:18:58.694Z,1.40
2023-02-25T05:21:26.698Z,1.38
2023-02-25T05:23:54.406Z,1.67
2023-02-25T05:26:24.330Z,1.30
2023-02-25T05:28:53.185Z,1.67
2023-02-25T05:31:21.006Z,1.20
2023-02-25T05:33:48.149Z,1.50
2023-02-25T05:36:16.163Z,1.23
2023-02-25T05:38:43.554Z,1.50
2023-02-25T05:41:11.692Z,1.60
2023-02-25T05:43:39.523Z,1.25
2023-02-25T05:46:11.794Z,1.85
2023-02-25T05:48:42.821Z,1.58
2023-02-25T05:51:16.167Z,1.45
2023-02-25T05:53:44.910Z,1.60
2023-02-25T05:56:15.230Z,1.40
2023-02-25T05:58:42.355Z,1.70
2023-02-25T06:01:15.210Z,1.60
2023-02-25T06:03:44.368Z,1.70
2023-02-25T06:06:13.538Z,1.85
2023-02-25T06:08:44.426Z,1.52
2023-02-25T06:11:16.993Z,1.25
2023-02-25T06:13:44.082Z,1.40
2023-02-25T06:16:11.088Z,1.58
2023-02-25T06:18:38.141Z,1.52
2023-02-25T06:21:07.568Z,1.67
2023-02-25T06:23:36.220Z,1.55
2023-02-25T06:28:30.857Z,1.63
2023-02-25T06:30:57.839Z,1.70
2023-02-25T06:33:25.469Z,1.45
2023-02-25T06:38:21.486Z,1.50
2023-02-25T06:40:49.748Z,1.60
2023-02-25T06:43:17.752Z,1.85
2023-02-25T06:45:45.254Z,1.83
2023-02-25T06:48:12.229Z,1.50
2023-02-25T06:50:40.251Z,2.13
2023-02-25T06:53:07.744Z,2.60
2023-02-25T06:55:34.832Z,1.35
2023-02-25T06:58:01.807Z,1.48
2023-02-25T07:00:29.008Z,1.27
2023-02-25T07:02:56.037Z,1.42
2023-02-25T07:05:23.170Z,1.40
2023-02-25T07:07:50.144Z,1.52
2023-02-25T07:10:17.162Z,1.77
2023-02-25T07:12:44.212Z,1.50
2023-02-25T07:15:11.421Z,1.60
2023-02-25T07:17:38.472Z,1.55
2023-02-25T07:20:05.914Z,1.65
2023-02-25T07:22:32.982Z,1.50
2023-02-25T07:25:00.543Z,1.40
2023-02-25T07:27:27.557Z,1.30
2023-02-25T07:29:55.172Z,1.70
2023-02-25T07:32:25.485Z,1.50
2023-02-25T07:34:52.945Z,1.73
2023-02-25T07:37:19.872Z,1.10
2023-02-25T07:39:47.771Z,1.17
2023-02-25T07:42:14.869Z,1.65
2023-02-25T07:44:47.528Z,1.65
2023-02-25T07:47:14.548Z,1.20
2023-02-25T07:49:41.464Z,1.83
2023-02-25T07:52:08.555Z,1.10
2023-02-25T07:54:35.487Z,1.30
2023-02-25T07:57:02.834Z,1.70
2023-02-25T07:59:30.858Z,1.38
2023-02-25T08:01:57.828Z,1.20
2023-02-25T08:04:25.011Z,1.20
2023-02-25T08:06:52.858Z,1.60
2023-02-25T08:09:19.974Z,1.90
2023-02-25T08:11:47.043Z,1.75
2023-02-25T08:14:14.888Z,1.52
2023-02-25T08:16:41.897Z,1.90
2023-02-25T08:19:08.960Z,2.22
2023-02-25T08:21:37.519Z,2.78
2023-02-25T08:24:04.797Z,2.50
2023-02-25T08:26:31.783Z,2.00
2023-02-25T08:28:58.876Z,1.58
2023-02-25T08:31:27.184Z,1.88
2023-02-25T08:36:27.374Z,1.80
2023-02-25T08:38:57.154Z,1.48
2023-02-25T08:41:26.099Z,2.30
2023-02-25T08:43:55.283Z,1.65
2023-02-25T08:46:24.642Z,1.95
2023-02-25T08:48:54.223Z,2.03
2023-02-25T08:51:23.656Z,1.75
2023-02-25T08:53:51.072Z,1.42
2023-02-25T08:56:18.289Z,1.98
2023-02-25T08:58:45.332Z,1.48
2023-02-25T09:01:15.607Z,1.38
2023-02-25T09:03:53.823Z,1.77
2023-02-25T09:06:28.186Z,1.67
2023-02-25T09:08:56.828Z,1.30
2023-02-25T09:13:53.562Z,1.40
2023-02-25T09:16:20.835Z,1.67
2023-02-25T09:18:50.187Z,1.65
2023-02-25T09:21:18.491Z,1.52
2023-02-25T09:23:46.897Z,2.05
2023-02-25T09:26:14.663Z,1.38
2023-02-25T09:28:41.635Z,1.40
2023-02-25T09:31:08.780Z,1.65
2023-02-25T09:33:37.520Z,1.50
2023-02-25T09:40:59.885Z,1.73
2023-02-25T09:43:39.588Z,1.60
2023-02-25T09:46:10.415Z,1.80
2023-02-25T09:49:02.648Z,1.30
2023-02-25T09:51:48.089Z,1.27
2023-02-25T09:54:48.494Z,1.38
2023-02-25T09:57:21.670Z,1.63
2023-02-25T09:59:52.193Z,1.88
2023-02-25T10:02:57.958Z,1.10
2023-02-25T10:05:39.374Z,1.33
2023-02-25T10:08:19.240Z,1.25
2023-02-25T10:10:54.645Z,1.45
2023-02-25T10:13:55.953Z,1.42
2023-02-25T10:16:48.043Z,1.23
2023-02-25T10:19:21.292Z,1.60
2023-02-25T10:22:17.397Z,1.60
2023-02-25T10:25:02.747Z,1.60
2023-02-25T10:27:57.422Z,1.60
2023-02-25T10:30:38.597Z,1.63
2023-02-25T10:33:21.454Z,1.35
2023-02-25T10:35:51.815Z,1.27
2023-02-25T10:38:18.873Z,1.80
2023-02-25T10:40:46.010Z,1.85
2023-02-25T10:43:22.849Z,0.95
2023-02-25T10:46:04.836Z,1.23
2023-02-25T10:48:33.394Z,1.67
2023-02-25T10:51:12.213Z,1.52
2023-02-25T10:54:00.252Z,1.42
2023-02-25T10:56:31.595Z,1.67
2023-02-25T10:59:21.409Z,1.40
2023-02-25T11:01:48.875Z,2.00
2023-02-25T11:04:20.338Z,2.05
2023-02-25T11:06:48.681Z,2.38
2023-02-25T11:09:21.215Z,2.03
2023-02-25T11:12:19.945Z,2.55
2023-02-25T11:14:47.107Z,2.78
2023-02-25T11:17:20.446Z,2.63
2023-02-25T11:19:52.804Z,2.13
2023-02-25T11:22:29.799Z,2.10
2023-02-25T11:25:00.813Z,2.33
2023-02-25T11:27:39.841Z,2.20
2023-02-25T11:30:12.832Z,2.20
2023-02-25T11:32:54.383Z,1.65
2023-02-25T11:35:29.873Z,2.30
2023-02-25T11:37:58.878Z,1.58
2023-02-25T11:40:29.810Z,1.63
2023-02-25T11:43:19.677Z,2.10
2023-02-25T11:46:03.093Z,1.95
2023-02-25T11:48:57.463Z,2.13
2023-02-25T11:51:48.384Z,1.88
2023-02-25T11:54:53.604Z,2.25
2023-02-25T11:57:23.754Z,1.88
2023-02-25T11:59:56.101Z,1.45
2023-02-25T12:02:45.065Z,1.67
2023-02-25T12:05:39.809Z,1.75
2023-02-25T12:08:40.192Z,1.63
2023-02-25T12:11:41.566Z,1.42
2023-02-25T12:14:11.373Z,1.48
2023-02-25T12:17:02.812Z,2.22
2023-02-25T12:20:17.947Z,1.55
2023-02-25T12:23:08.975Z,1.40
2023-02-25T12:25:53.900Z,1.77
2023-02-25T12:28:45.689Z,1.60
2023-02-25T12:31:43.789Z,1.85
2023-02-25T12:34:36.959Z,1.60
2023-02-25T12:37:30.938Z,1.42
2023-02-25T12:40:34.430Z,1.85
2023-02-25T12:43:13.790Z,2.03
2023-02-25T12:45:57.931Z,1.70
2023-02-25T12:48:56.314Z,1.60
2023-02-25T12:54:26.469Z,2.00
2023-02-25T12:57:29.782Z,1.38
2023-02-25T13:00:08.184Z,2.50
2023-02-25T13:02:59.647Z,1.75
2023-02-25T13:05:29.871Z,1.42
2023-02-25T13:08:54.439Z,1.73
2023-02-25T13:11:30.427Z,2.40
2023-02-25T13:14:25.507Z,2.30
2023-02-25T13:17:04.474Z,2.30
2023-02-25T13:20:13.838Z,3.05
2023-02-25T13:25:35.090Z,2.90
2023-02-25T13:28:20.164Z,2.20
2023-02-25T13:31:08.869Z,2.00
2023-02-25T13:33:38.808Z,1.80
2023-02-25T13:36:14.911Z,2.28
2023-02-25T13:39:19.525Z,2.05
2023-02-25T13:42:24.928Z,1.85
2023-02-25T13:45:02.328Z,1.77
2023-02-25T13:47:48.224Z,2.00
2023-02-25T13:50:33.470Z,1.85
2023-02-25T13:53:19.341Z,1.73
2023-02-25T13:56:21.026Z,1.75
2023-02-25T13:59:03.418Z,2.33
2023-02-25T14:01:58.066Z,1.90
2023-02-25T14:04:58.123Z,1.92
2023-02-25T14:08:10.114Z,1.65
2023-02-25T14:11:19.952Z,1.48
2023-02-25T14:14:06.009Z,1.70
2023-02-25T14:16:54.178Z,1.30
2023-02-25T14:19:51.998Z,1.70
2023-02-25T14:22:36.191Z,1.50
2023-02-25T14:25:26.020Z,1.35
2023-02-25T14:28:15.088Z,1.42
2023-02-25T14:30:51.169Z,1.38
2023-02-25T14:33:33.454Z,1.23
2023-02-25T14:36:03.168Z,1.20
2023-02-25T14:38:39.245Z,1.25
2023-02-25T14:41:34.279Z,1.35
2023-02-25T14:44:07.713Z,1.63
2023-02-25T14:46:46.710Z,1.65
2023-02-25T14:49:30.553Z,1.90
2023-02-25T14:52:27.683Z,1.83
2023-02-25T14:55:14.266Z,2.00
2023-02-25T14:57:56.674Z,1.80
2023-02-25T15:00:32.441Z,1.58
2023-02-25T15:03:18.371Z,1.50
2023-02-25T15:06:03.712Z,1.23
2023-02-25T15:08:56.412Z,1.95
2023-02-25T15:11:44.774Z,1.65
2023-02-25T15:14:30.326Z,1.70
2023-02-25T15:17:24.564Z,1.58
2023-02-25T15:20:19.058Z,1.70
2023-02-25T15:23:13.196Z,1.40
2023-02-25T15:25:53.944Z,1.67
2023-02-25T15:28:29.981Z,1.60
2023-02-25T15:31:02.799Z,1.30
2023-02-25T15:33:45.483Z,1.52
2023-02-25T15:36:15.428Z,1.42
2023-02-25T15:38:44.389Z,1.27
2023-02-25T15:41:29.696Z,1.27
2023-02-25T15:44:00.675Z,1.60
2023-02-25T15:46:37.230Z,1.63
2023-02-25T15:49:27.885Z,1.60
2023-02-25T15:52:04.200Z,1.70
2023-02-25T15:54:31.512Z,1.83
2023-02-25T15:57:04.973Z,1.58
2023-02-25T15:59:48.196Z,1.48
2023-02-25T16:02:30.238Z,1.70
2023-02-25T16:05:09.542Z,1.33
2023-02-25T16:07:45.372Z,1.50
2023-02-25T16:10:16.676Z,1.45
2023-02-25T16:12:45.937Z,1.48
2023-02-25T16:15:27.488Z,1.30
2023-02-25T16:17:57.206Z,1.50
2023-02-25T16:20:33.850Z,1.52
2023-02-25T16:23:01.404Z,1.73
2023-02-25T16:25:59.904Z,1.20
2023-02-25T16:28:41.652Z,1.35
2023-02-25T16:31:20.624Z,2.08
2023-02-25T16:34:07.971Z,1.85
2023-02-25T16:36:49.252Z,2.30
2023-02-25T16:39:23.744Z,2.17
2023-02-25T16:41:52.355Z,2.03
2023-02-25T16:46:52.753Z,2.20
2023-02-25T16:49:47.360Z,1.80
2023-02-25T16:52:26.687Z,1.95
2023-02-25T16:55:05.219Z,1.85
2023-02-25T17:00:15.919Z,2.28
2023-02-25T17:02:48.786Z,3.22
2023-02-25T17:05:24.702Z,2.50
2023-02-25T17:08:01.261Z,3.15
2023-02-25T17:10:42.290Z,2.67
2023-02-25T17:13:43.243Z,2.63
2023-02-25T17:16:36.668Z,2.75
2023-02-25T17:19:07.255Z,2.25
2023-02-25T17:21:38.278Z,2.38
2023-02-25T17:24:13.916Z,2.45
2023-02-25T17:26:43.165Z,1.95
2023-02-25T17:29:16.666Z,2.20
2023-02-25T17:31:49.350Z,2.15
2023-02-25T17:34:46.144Z,2.80
2023-02-25T17:37:14.189Z,3.17
2023-02-25T17:39:41.937Z,3.13
2023-02-25T17:42:29.760Z,3.10
2023-02-25T17:44:57.831Z,3.00
2023-02-25T17:47:35.443Z,2.78
2023-02-25T17:50:32.745Z,2.13
2023-02-25T17:53:00.278Z,2.42
2023-02-25T17:55:34.868Z,2.08
2023-02-25T17:58:03.392Z,2.25
2023-02-25T18:00:33.604Z,2.00
2023-02-25T18:03:15.844Z,1.73
2023-02-25T18:05:53.158Z,2.03
2023-02-25T18:08:25.115Z,2.05
2023-02-25T18:11:16.664Z,2.10
2023-02-25T18:13:44.188Z,2.47
2023-02-25T18:16:20.859Z,2.17
2023-02-25T18:18:53.448Z,1.95
2023-02-25T18:21:20.689Z,2.35
2023-02-25T18:23:51.036Z,2.17
2023-02-25T18:26:24.835Z,2.38
2023-02-25T18:28:54.808Z,2.65
2023-02-25T18:31:22.617Z,2.97
2023-02-25T18:33:50.141Z,2.60
2023-02-25T18:36:23.646Z,2.80
2023-02-25T18:38:53.045Z,2.63
2023-02-25T18:41:19.976Z,2.67
2023-02-25T18:43:47.288Z,2.50
2023-02-25T18:46:15.710Z,2.85
2023-02-25T18:48:42.773Z,3.00
2023-02-25T18:51:14.269Z,2.63
2023-02-25T18:53:42.071Z,2.72
2023-02-25T18:56:16.471Z,3.20
2023-02-25T18:58:44.530Z,3.05
2023-02-25T19:01:23.854Z,2.88
2023-02-25T19:03:51.488Z,2.60
2023-02-25T19:06:18.680Z,2.97
2023-02-25T19:08:45.924Z,3.08
2023-02-25T19:11:22.863Z,2.78
2023-02-25T19:13:50.340Z,3.10
2023-02-25T19:16:19.288Z,2.70
2023-02-25T19:18:47.446Z,3.08
2023-02-25T19:21:17.923Z,3.17
2023-02-25T19:23:45.786Z,3.70
2023-02-25T19:26:16.041Z,3.03
2023-02-25T19:28:43.571Z,3.47
2023-02-25T19:31:12.446Z,3.28
2023-02-25T19:33:39.646Z,3.47
2023-02-25T19:36:08.694Z,3.50
2023-02-25T19:38:35.797Z,3.17
2023-02-25T19:41:06.128Z,2.60
2023-02-25T19:43:33.724Z,2.90
2023-02-25T19:46:01.123Z,2.72
2023-02-25T19:48:28.241Z,4.15
2023-02-25T19:50:55.336Z,4.28
2023-02-25T19:53:22.373Z,5.65
2023-02-25T19:55:50.281Z,4.80
2023-02-25T19:58:18.166Z,3.85
2023-02-25T20:00:45.890Z,4.35
2023-02-25T20:03:13.973Z,4.18
2023-02-25T20:05:41.892Z,4.43
2023-02-25T20:08:09.393Z,4.35
2023-02-25T20:10:36.635Z,4.10
2023-02-25T20:13:03.696Z,3.58
2023-02-25T20:15:31.035Z,4.35
2023-02-25T20:17:58.118Z,6.32
2023-02-25T20:20:25.570Z,4.97
2023-02-25T20:22:52.664Z,4.68
2023-02-25T20:25:19.777Z,4.07
2023-02-25T20:27:46.812Z,3.42
2023-02-25T20:30:16.251Z,3.63
2023-02-25T20:32:45.030Z,4.30
2023-02-25T20:35:16.904Z,4.40
2023-02-25T20:38:08.312Z,4.00
2023-02-25T20:40:35.554Z,3.72
2023-02-25T20:43:02.717Z,3.20
2023-02-25T20:45:30.131Z,3.35
2023-02-25T20:47:57.226Z,3.55
2023-02-25T20:50:28.353Z,3.60
2023-02-25T20:52:55.989Z,3.28
2023-02-25T20:55:23.154Z,2.92
2023-02-25T20:57:50.539Z,3.13
2023-02-25T21:00:19.915Z,2.65
2023-02-25T21:02:46.970Z,2.72
2023-02-25T21:05:14.067Z,2.60
2023-02-25T21:07:41.079Z,2.53
2023-02-25T21:10:09.186Z,2.17
2023-02-25T21:12:36.429Z,2.78
2023-02-25T21:15:03.926Z,1.80
2023-02-25T21:17:30.994Z,2.20
2023-02-25T21:19:57.984Z,2.00
2023-02-25T21:22:25.183Z,1.70
2023-02-25T21:24:52.221Z,2.05
2023-02-25T21:27:19.282Z,2.28
2023-02-25T21:29:46.331Z,2.15
2023-02-25T21:32:13.323Z,2.90
2023-02-25T21:34:40.460Z,2.80
2023-02-25T21:37:07.506Z,3.13
2023-02-25T21:39:34.661Z,2.30
2023-02-25T21:42:01.747Z,2.95
2023-02-25T21:44:28.766Z,2.72
2023-02-25T21:46:58.215Z,2.20
2023-02-25T21:49:27.134Z,2.15
2023-02-25T21:51:54.663Z,2.42
2023-02-25T21:54:21.644Z,2.60
2023-02-25T21:56:48.677Z,2.53
2023-02-25T21:59:16.351Z,2.80
2023-02-25T22:01:43.768Z,2.47
2023-02-25T22:04:11.328Z,2.47
2023-02-25T22:06:38.457Z,2.40
2023-02-25T22:09:06.919Z,1.85
2023-02-25T22:11:36.016Z,2.30
2023-02-25T22:14:05.749Z,1.83
2023-02-25T22:16:33.192Z,2.15
2023-02-25T22:19:00.620Z,1.73
2023-02-25T22:21:29.910Z,2.10
2023-02-25T22:23:59.573Z,2.00
2023-02-25T22:26:29.325Z,2.30
2023-02-25T22:28:59.000Z,2.35
2023-02-25T22:31:26.973Z,1.92
2023-02-25T22:33:56.426Z,2.38
2023-02-25T22:36:24.122Z,1.80
2023-02-25T22:38:51.446Z,2.00
2023-02-25T22:41:24.190Z,1.85
2023-02-25T22:43:52.013Z,2.00
2023-02-25T22:46:30.457Z,2.00
2023-02-25T22:51:33.848Z,1.70
2023-02-25T22:54:01.212Z,2.00
2023-02-25T22:56:28.653Z,1.88
2023-02-25T22:58:55.912Z,2.03
2023-02-25T23:01:24.540Z,2.20
2023-02-25T23:06:24.964Z,2.25
2023-02-25T23:08:56.592Z,1.85
2023-02-25T23:11:27.153Z,1.93
2023-02-25T23:13:58.378Z,1.70
2023-02-25T23:16:31.457Z,1.60
2023-02-25T23:19:00.024Z,2.00
2023-02-25T23:21:28.201Z,1.95
2023-02-25T23:23:58.327Z,1.92
2023-02-25T23:26:30.365Z,1.73
2023-02-25T23:28:59.609Z,2.28
2023-02-25T23:31:34.989Z,2.05
2023-02-25T23:34:04.672Z,1.60
2023-02-25T23:36:32.023Z,1.67
2023-02-25T23:39:01.164Z,1.52
2023-02-25T23:41:29.305Z,1.50
2023-02-25T23:43:58.516Z,1.85
2023-02-25T23:46:27.538Z,1.33
2023-02-25T23:48:56.388Z,1.52
2023-02-25T23:51:24.611Z,1.63
2023-02-25T23:53:59.978Z,2.22
2023-02-25T23:56:27.992Z,1.63
2023-02-25T23:58:56.045Z,1.48
